sensor_id;sensor_type;location;lat;lon;timestamp;pressure;altitude;pressure_sealevel;temperature;humidity
79136;BME280;68533;51.090;17.216;2023-08-17T00:00:44;100399.47;;;19.00;95.76
79136;BME280;68533;51.090;17.216;2023-08-17T00:03:30;100396.06;;;18.95;96.01
79136;BME280;68533;51.090;17.216;2023-08-17T00:05:56;100398.72;;;18.91;96.17
79136;BME280;68533;51.090;17.216;2023-08-17T00:08:25;100401.94;;;18.81;97.08
79136;BME280;68533;51.090;17.216;2023-08-17T00:10:51;100405.72;;;18.77;96.91
79136;BME280;68533;51.090;17.216;2023-08-17T00:13:17;100413.19;;;18.85;96.61
79136;BME280;68533;51.090;17.216;2023-08-17T00:15:44;100413.19;;;18.85;97.08
79136;BME280;68533;51.090;17.216;2023-08-17T00:18:10;100426.47;;;18.88;96.83
79136;BME280;68533;51.090;17.216;2023-08-17T00:20:39;100430.94;;;19.01;96.25
79136;BME280;68533;51.090;17.216;2023-08-17T00:23:04;100431.06;;;19.05;95.97
79136;BME280;68533;51.090;17.216;2023-08-17T00:25:31;100421.22;;;19.07;96.17
79136;BME280;68533;51.090;17.216;2023-08-17T00:27:56;100431.16;;;18.96;96.89
79136;BME280;68533;51.090;17.216;2023-08-17T00:30:23;100442.41;;;18.99;97.33
79136;BME280;68533;51.090;17.216;2023-08-17T00:32:49;100462.06;;;19.03;97.20
79136;BME280;68533;51.090;17.216;2023-08-17T00:35:15;100498.03;;;19.17;96.83
79136;BME280;68533;51.090;17.216;2023-08-17T00:37:41;100553.19;;;19.32;95.48
79136;BME280;68533;51.090;17.216;2023-08-17T00:40:07;100563.41;;;19.19;90.25
79136;BME280;68533;51.090;17.216;2023-08-17T00:42:35;100556.78;;;19.12;89.06
79136;BME280;68533;51.090;17.216;2023-08-17T00:45:01;100555.00;;;19.28;88.27
79136;BME280;68533;51.090;17.216;2023-08-17T00:47:28;100544.75;;;19.94;88.96
79136;BME280;68533;51.090;17.216;2023-08-17T00:49:56;100570.66;;;20.48;87.39
79136;BME280;68533;51.090;17.216;2023-08-17T00:52:23;100589.16;;;20.08;84.46
79136;BME280;68533;51.090;17.216;2023-08-17T00:54:49;100593.28;;;20.02;82.40
79136;BME280;68533;51.090;17.216;2023-08-17T00:57:15;100582.09;;;19.90;82.33
79136;BME280;68533;51.090;17.216;2023-08-17T00:59:42;100591.75;;;19.92;81.51
79136;BME280;68533;51.090;17.216;2023-08-17T01:02:08;100573.72;;;19.90;82.66
79136;BME280;68533;51.090;17.216;2023-08-17T01:05:03;100565.53;;;20.05;81.98
79136;BME280;68533;51.090;17.216;2023-08-17T01:07:48;100561.91;;;20.05;82.40
79136;BME280;68533;51.090;17.216;2023-08-17T01:14:04;100508.38;;;19.91;83.39
79136;BME280;68533;51.090;17.216;2023-08-17T01:19:35;100470.47;;;19.36;88.23
79136;BME280;68533;51.090;17.216;2023-08-17T01:22:35;100487.81;;;19.21;88.86
79136;BME280;68533;51.090;17.216;2023-08-17T01:25:09;100481.63;;;19.15;89.61
79136;BME280;68533;51.090;17.216;2023-08-17T01:27:48;100465.13;;;18.89;90.88
79136;BME280;68533;51.090;17.216;2023-08-17T01:30:16;100467.47;;;18.79;92.50
79136;BME280;68533;51.090;17.216;2023-08-17T01:33:20;100458.03;;;18.71;94.41
79136;BME280;68533;51.090;17.216;2023-08-17T01:36:05;100458.84;;;18.72;94.62
79136;BME280;68533;51.090;17.216;2023-08-17T01:38:53;100454.16;;;18.64;94.09
79136;BME280;68533;51.090;17.216;2023-08-17T01:41:24;100443.72;;;18.52;94.88
79136;BME280;68533;51.090;17.216;2023-08-17T01:43:56;100432.28;;;18.45;95.20
79136;BME280;68533;51.090;17.216;2023-08-17T01:46:30;100438.44;;;18.30;96.26
79136;BME280;68533;51.090;17.216;2023-08-17T01:49:04;100451.53;;;18.29;96.42
79136;BME280;68533;51.090;17.216;2023-08-17T01:51:31;100448.88;;;18.33;96.53
79136;BME280;68533;51.090;17.216;2023-08-17T01:54:00;100447.16;;;18.19;97.14
79136;BME280;68533;51.090;17.216;2023-08-17T01:56:28;100443.84;;;18.26;97.04
79136;BME280;68533;51.090;17.216;2023-08-17T01:58:54;100439.41;;;18.25;97.72
79136;BME280;68533;51.090;17.216;2023-08-17T02:01:20;100435.84;;;18.16;97.61
79136;BME280;68533;51.090;17.216;2023-08-17T02:03:46;100449.97;;;18.11;98.34
79136;BME280;68533;51.090;17.216;2023-08-17T02:06:11;100443.09;;;18.08;98.58
79136;BME280;68533;51.090;17.216;2023-08-17T02:08:40;100439.34;;;18.04;98.30
79136;BME280;68533;51.090;17.216;2023-08-17T02:11:06;100427.09;;;18.05;97.68
79136;BME280;68533;51.090;17.216;2023-08-17T02:13:32;100431.66;;;18.01;98.06
79136;BME280;68533;51.090;17.216;2023-08-17T02:15:58;100434.81;;;18.00;98.01
79136;BME280;68533;51.090;17.216;2023-08-17T02:18:24;100430.22;;;17.95;98.03
79136;BME280;68533;51.090;17.216;2023-08-17T02:20:50;100421.09;;;17.86;98.50
79136;BME280;68533;51.090;17.216;2023-08-17T02:23:16;100416.19;;;17.83;98.95
79136;BME280;68533;51.090;17.216;2023-08-17T02:25:42;100425.69;;;17.82;98.92
79136;BME280;68533;51.090;17.216;2023-08-17T02:28:08;100412.94;;;17.81;98.12
79136;BME280;68533;51.090;17.216;2023-08-17T02:30:34;100420.16;;;17.73;98.53
79136;BME280;68533;51.090;17.216;2023-08-17T02:33:01;100419.72;;;17.63;99.26
79136;BME280;68533;51.090;17.216;2023-08-17T02:35:27;100418.38;;;17.60;99.51
79136;BME280;68533;51.090;17.216;2023-08-17T02:37:53;100414.16;;;17.63;98.65
79136;BME280;68533;51.090;17.216;2023-08-17T02:40:19;100408.91;;;17.61;98.59
79136;BME280;68533;51.090;17.216;2023-08-17T02:42:45;100409.72;;;17.53;99.21
79136;BME280;68533;51.090;17.216;2023-08-17T02:45:11;100409.41;;;17.46;100.00
79136;BME280;68533;51.090;17.216;2023-08-17T02:47:37;100399.44;;;17.45;100.00
79136;BME280;68533;51.090;17.216;2023-08-17T02:50:03;100396.97;;;17.43;100.00
79136;BME280;68533;51.090;17.216;2023-08-17T02:52:30;100396.16;;;17.43;100.00
79136;BME280;68533;51.090;17.216;2023-08-17T02:54:55;100398.28;;;17.46;100.00
79136;BME280;68533;51.090;17.216;2023-08-17T02:57:22;100405.81;;;17.45;100.00
79136;BME280;68533;51.090;17.216;2023-08-17T02:59:49;100408.78;;;17.40;100.00
79136;BME280;68533;51.090;17.216;2023-08-17T03:02:15;100407.13;;;17.39;100.00
79136;BME280;68533;51.090;17.216;2023-08-17T03:04:41;100411.25;;;17.33;100.00
79136;BME280;68533;51.090;17.216;2023-08-17T03:07:08;100409.44;;;17.29;100.00
79136;BME280;68533;51.090;17.216;2023-08-17T03:09:33;100403.56;;;17.30;100.00
79136;BME280;68533;51.090;17.216;2023-08-17T03:12:20;100396.84;;;17.40;100.00
79136;BME280;68533;51.090;17.216;2023-08-17T03:15:29;100395.50;;;17.46;100.00
79136;BME280;68533;51.090;17.216;2023-08-17T03:18:32;100392.72;;;17.55;100.00
79136;BME280;68533;51.090;17.216;2023-08-17T03:21:16;100395.00;;;17.61;100.00
79136;BME280;68533;51.090;17.216;2023-08-17T03:24:39;100400.69;;;17.73;100.00
79136;BME280;68533;51.090;17.216;2023-08-17T03:28:06;100406.84;;;17.88;100.00
79136;BME280;68533;51.090;17.216;2023-08-17T03:30:59;100412.19;;;18.01;100.00
79136;BME280;68533;51.090;17.216;2023-08-17T03:33:40;100413.00;;;18.02;100.00
79136;BME280;68533;51.090;17.216;2023-08-17T03:36:22;100420.03;;;18.08;100.00
79136;BME280;68533;51.090;17.216;2023-08-17T03:38:49;100419.34;;;18.11;100.00
79136;BME280;68533;51.090;17.216;2023-08-17T03:41:15;100431.59;;;18.18;100.00
79136;BME280;68533;51.090;17.216;2023-08-17T03:43:44;100431.06;;;18.25;100.00
79136;BME280;68533;51.090;17.216;2023-08-17T03:46:10;100436.97;;;18.23;100.00
79136;BME280;68533;51.090;17.216;2023-08-17T03:48:36;100442.38;;;18.29;100.00
79136;BME280;68533;51.090;17.216;2023-08-17T03:51:05;100442.81;;;18.31;100.00
79136;BME280;68533;51.090;17.216;2023-08-17T03:53:31;100450.53;;;18.34;100.00
79136;BME280;68533;51.090;17.216;2023-08-17T03:55:57;100455.75;;;18.35;99.55
79136;BME280;68533;51.090;17.216;2023-08-17T03:58:23;100458.22;;;18.37;100.00
79136;BME280;68533;51.090;17.216;2023-08-17T04:00:53;100458.00;;;18.42;99.79
79136;BME280;68533;51.090;17.216;2023-08-17T04:03:19;100451.91;;;18.57;98.59
79136;BME280;68533;51.090;17.216;2023-08-17T04:05:45;100460.44;;;18.52;99.20
79136;BME280;68533;51.090;17.216;2023-08-17T04:08:11;100459.25;;;18.53;99.95
79136;BME280;68533;51.090;17.216;2023-08-17T04:10:41;100448.81;;;18.50;98.54
79136;BME280;68533;51.090;17.216;2023-08-17T04:13:07;100458.53;;;18.35;98.48
79136;BME280;68533;51.090;17.216;2023-08-17T04:15:34;100453.97;;;18.31;98.75
79136;BME280;68533;51.090;17.216;2023-08-17T04:18:00;100459.41;;;18.27;98.69
79136;BME280;68533;51.090;17.216;2023-08-17T04:20:26;100464.03;;;18.14;99.18
79136;BME280;68533;51.090;17.216;2023-08-17T04:22:54;100466.44;;;18.24;100.00
79136;BME280;68533;51.090;17.216;2023-08-17T04:25:20;100469.72;;;18.27;100.00
79136;BME280;68533;51.090;17.216;2023-08-17T04:27:47;100477.88;;;18.32;99.81
79136;BME280;68533;51.090;17.216;2023-08-17T04:30:12;100487.31;;;18.39;100.00
79136;BME280;68533;51.090;17.216;2023-08-17T04:32:39;100488.84;;;18.37;98.99
79136;BME280;68533;51.090;17.216;2023-08-17T04:35:05;100504.53;;;18.41;99.04
79136;BME280;68533;51.090;17.216;2023-08-17T04:37:31;100515.34;;;18.43;98.70
79136;BME280;68533;51.090;17.216;2023-08-17T04:39:57;100525.34;;;18.35;99.55
79136;BME280;68533;51.090;17.216;2023-08-17T04:42:23;100520.09;;;18.42;99.43
79136;BME280;68533;51.090;17.216;2023-08-17T04:44:52;100520.91;;;18.43;99.22
79136;BME280;68533;51.090;17.216;2023-08-17T04:47:21;100526.63;;;18.38;98.84
79136;BME280;68533;51.090;17.216;2023-08-17T04:49:47;100526.34;;;18.31;99.37
79136;BME280;68533;51.090;17.216;2023-08-17T04:52:13;100538.66;;;18.30;99.82
79136;BME280;68533;51.090;17.216;2023-08-17T04:54:39;100534.09;;;18.16;100.00
79136;BME280;68533;51.090;17.216;2023-08-17T04:57:05;100546.81;;;18.35;100.00
79136;BME280;68533;51.090;17.216;2023-08-17T04:59:31;100545.34;;;18.29;100.00
79136;BME280;68533;51.090;17.216;2023-08-17T05:01:57;100546.84;;;18.26;100.00
79136;BME280;68533;51.090;17.216;2023-08-17T05:04:23;100545.47;;;18.41;99.85
79136;BME280;68533;51.090;17.216;2023-08-17T05:06:52;100534.78;;;18.51;100.00
79136;BME280;68533;51.090;17.216;2023-08-17T05:09:22;100523.44;;;18.65;98.82
79136;BME280;68533;51.090;17.216;2023-08-17T05:11:50;100530.81;;;18.61;98.82
79136;BME280;68533;51.090;17.216;2023-08-17T05:14:16;100551.59;;;18.72;98.28
79136;BME280;68533;51.090;17.216;2023-08-17T05:16:43;100548.00;;;18.72;97.89
79136;BME280;68533;51.090;17.216;2023-08-17T05:19:08;100546.03;;;18.72;99.12
79136;BME280;68533;51.090;17.216;2023-08-17T05:21:35;100533.59;;;18.90;97.98
79136;BME280;68533;51.090;17.216;2023-08-17T05:24:01;100532.41;;;19.00;98.06
79136;BME280;68533;51.090;17.216;2023-08-17T05:26:28;100537.06;;;19.17;96.33
79136;BME280;68533;51.090;17.216;2023-08-17T05:28:53;100540.38;;;19.31;96.55
79136;BME280;68533;51.090;17.216;2023-08-17T05:31:20;100552.91;;;19.46;94.46
79136;BME280;68533;51.090;17.216;2023-08-17T05:33:48;100542.25;;;19.68;89.81
79136;BME280;68533;51.090;17.216;2023-08-17T05:36:14;100535.69;;;19.85;89.93
79136;BME280;68533;51.090;17.216;2023-08-17T05:38:40;100534.16;;;19.88;88.33
79136;BME280;68533;51.090;17.216;2023-08-17T05:41:06;100525.94;;;19.91;86.53
79136;BME280;68533;51.090;17.216;2023-08-17T05:43:32;100529.31;;;19.97;84.97
79136;BME280;68533;51.090;17.216;2023-08-17T05:45:58;100521.16;;;19.92;84.93
79136;BME280;68533;51.090;17.216;2023-08-17T05:48:25;100520.59;;;19.98;84.76
79136;BME280;68533;51.090;17.216;2023-08-17T05:50:57;100512.16;;;20.07;86.08
79136;BME280;68533;51.090;17.216;2023-08-17T05:53:23;100513.81;;;19.87;87.11
79136;BME280;68533;51.090;17.216;2023-08-17T05:55:49;100511.28;;;19.94;87.59
79136;BME280;68533;51.090;17.216;2023-08-17T05:58:17;100505.50;;;20.11;86.60
79136;BME280;68533;51.090;17.216;2023-08-17T06:00:43;100509.94;;;20.12;86.19
79136;BME280;68533;51.090;17.216;2023-08-17T06:03:09;100515.66;;;20.28;84.32
79136;BME280;68533;51.090;17.216;2023-08-17T06:05:35;100516.59;;;20.32;81.20
79136;BME280;68533;51.090;17.216;2023-08-17T06:08:01;100509.22;;;20.03;82.06
79136;BME280;68533;51.090;17.216;2023-08-17T06:10:27;100507.63;;;20.27;81.21
79136;BME280;68533;51.090;17.216;2023-08-17T06:12:54;100506.94;;;21.03;77.83
79136;BME280;68533;51.090;17.216;2023-08-17T06:15:21;100513.97;;;21.49;76.54
79136;BME280;68533;51.090;17.216;2023-08-17T06:17:48;100509.19;;;20.73;78.33
79136;BME280;68533;51.090;17.216;2023-08-17T06:20:17;100510.81;;;20.49;78.48
79136;BME280;68533;51.090;17.216;2023-08-17T06:22:44;100509.66;;;20.63;80.18
79136;BME280;68533;51.090;17.216;2023-08-17T06:25:10;100523.75;;;20.54;79.41
79136;BME280;68533;51.090;17.216;2023-08-17T06:27:38;100524.69;;;20.58;81.03
79136;BME280;68533;51.090;17.216;2023-08-17T06:30:06;100523.88;;;20.58;79.31
79136;BME280;68533;51.090;17.216;2023-08-17T06:32:32;100512.69;;;20.58;79.10
79136;BME280;68533;51.090;17.216;2023-08-17T06:34:58;100521.53;;;20.47;78.41
79136;BME280;68533;51.090;17.216;2023-08-17T06:37:24;100517.56;;;20.36;78.34
79136;BME280;68533;51.090;17.216;2023-08-17T06:39:50;100524.53;;;20.30;78.08
79136;BME280;68533;51.090;17.216;2023-08-17T06:42:19;100525.78;;;20.21;78.88
79136;BME280;68533;51.090;17.216;2023-08-17T06:44:45;100535.97;;;20.37;78.77
79136;BME280;68533;51.090;17.216;2023-08-17T06:47:11;100539.22;;;20.51;77.68
79136;BME280;68533;51.090;17.216;2023-08-17T06:49:37;100530.97;;;20.55;77.38
79136;BME280;68533;51.090;17.216;2023-08-17T06:52:03;100525.28;;;20.51;77.69
79136;BME280;68533;51.090;17.216;2023-08-17T06:54:30;100529.06;;;21.08;75.52
79136;BME280;68533;51.090;17.216;2023-08-17T06:56:58;100530.91;;;21.16;78.51
79136;BME280;68533;51.090;17.216;2023-08-17T06:59:24;100527.78;;;21.29;74.38
79136;BME280;68533;51.090;17.216;2023-08-17T07:01:50;100532.34;;;21.22;74.89
79136;BME280;68533;51.090;17.216;2023-08-17T07:04:16;100524.19;;;21.17;74.60
79136;BME280;68533;51.090;17.216;2023-08-17T07:06:42;100529.63;;;21.13;73.91
79136;BME280;68533;51.090;17.216;2023-08-17T07:09:09;100537.38;;;21.16;74.48
79136;BME280;68533;51.090;17.216;2023-08-17T07:11:39;100542.44;;;21.39;73.05
79136;BME280;68533;51.090;17.216;2023-08-17T07:14:05;100548.72;;;21.36;74.87
79136;BME280;68533;51.090;17.216;2023-08-17T07:16:34;100545.91;;;21.48;72.88
79136;BME280;68533;51.090;17.216;2023-08-17T07:19:00;100538.16;;;21.57;72.54
79136;BME280;68533;51.090;17.216;2023-08-17T07:21:27;100541.53;;;22.18;71.72
79136;BME280;68533;51.090;17.216;2023-08-17T07:23:54;100542.25;;;23.09;72.20
79136;BME280;68533;51.090;17.216;2023-08-17T07:26:23;100548.44;;;23.34;69.49
79136;BME280;68533;51.090;17.216;2023-08-17T07:28:52;100543.31;;;23.05;67.42
79136;BME280;68533;51.090;17.216;2023-08-17T07:31:17;100556.25;;;22.74;67.78
79136;BME280;68533;51.090;17.216;2023-08-17T07:33:44;100557.84;;;22.60;67.40
79136;BME280;68533;51.090;17.216;2023-08-17T07:36:10;100553.59;;;22.50;69.67
79136;BME280;68533;51.090;17.216;2023-08-17T07:38:38;100553.13;;;22.48;69.94
79136;BME280;68533;51.090;17.216;2023-08-17T07:41:04;100561.69;;;22.24;69.21
79136;BME280;68533;51.090;17.216;2023-08-17T07:43:30;100556.75;;;22.49;68.02
79136;BME280;68533;51.090;17.216;2023-08-17T07:45:56;100554.63;;;22.14;68.65
79136;BME280;68533;51.090;17.216;2023-08-17T07:48:26;100558.47;;;22.84;68.84
79136;BME280;68533;51.090;17.216;2023-08-17T07:50:52;100543.81;;;22.91;67.46
79136;BME280;68533;51.090;17.216;2023-08-17T07:53:19;100553.94;;;23.31;65.81
79136;BME280;68533;51.090;17.216;2023-08-17T07:55:45;100547.56;;;23.49;67.51
79136;BME280;68533;51.090;17.216;2023-08-17T07:58:12;100548.47;;;23.73;71.44
79136;BME280;68533;51.090;17.216;2023-08-17T08:00:38;100532.03;;;23.94;64.79
79136;BME280;68533;51.090;17.216;2023-08-17T08:03:04;100524.88;;;24.38;63.91
79136;BME280;68533;51.090;17.216;2023-08-17T08:05:31;100538.13;;;25.10;59.89
79136;BME280;68533;51.090;17.216;2023-08-17T08:07:57;100538.25;;;26.51;58.57
79136;BME280;68533;51.090;17.216;2023-08-17T08:10:23;100534.53;;;25.69;58.13
79136;BME280;68533;51.090;17.216;2023-08-17T08:12:50;100542.53;;;24.85;61.87
79136;BME280;68533;51.090;17.216;2023-08-17T08:15:15;100534.47;;;25.62;60.14
79136;BME280;68533;51.090;17.216;2023-08-17T08:17:42;100540.53;;;25.38;58.59
79136;BME280;68533;51.090;17.216;2023-08-17T08:20:08;100529.59;;;25.03;61.91
79136;BME280;68533;51.090;17.216;2023-08-17T08:22:36;100538.56;;;25.42;62.51
79136;BME280;68533;51.090;17.216;2023-08-17T08:25:02;100540.13;;;26.36;59.55
79136;BME280;68533;51.090;17.216;2023-08-17T08:27:28;100545.69;;;28.11;54.86
79136;BME280;68533;51.090;17.216;2023-08-17T08:29:54;100547.03;;;28.77;49.00
79136;BME280;68533;51.090;17.216;2023-08-17T08:32:20;100538.81;;;28.05;53.67
79136;BME280;68533;51.090;17.216;2023-08-17T08:34:46;100546.38;;;27.76;53.52
79136;BME280;68533;51.090;17.216;2023-08-17T08:37:14;100544.47;;;26.67;55.32
79136;BME280;68533;51.090;17.216;2023-08-17T08:39:52;100543.94;;;27.02;58.62
79136;BME280;68533;51.090;17.216;2023-08-17T08:42:20;100542.81;;;27.97;53.87
79136;BME280;68533;51.090;17.216;2023-08-17T08:44:46;100543.78;;;26.37;57.46
79136;BME280;68533;51.090;17.216;2023-08-17T08:47:13;100537.16;;;25.55;58.22
79136;BME280;68533;51.090;17.216;2023-08-17T08:49:40;100545.97;;;25.53;58.49
79136;BME280;68533;51.090;17.216;2023-08-17T08:52:12;100549.78;;;26.02;55.94
79136;BME280;68533;51.090;17.216;2023-08-17T08:54:43;100554.13;;;25.92;57.50
79136;BME280;68533;51.090;17.216;2023-08-17T08:57:14;100547.16;;;25.82;58.77
79136;BME280;68533;51.090;17.216;2023-08-17T08:59:41;100546.06;;;25.90;59.32
79136;BME280;68533;51.090;17.216;2023-08-17T09:02:14;100545.09;;;25.79;58.84
79136;BME280;68533;51.090;17.216;2023-08-17T09:04:45;100541.09;;;26.14;58.58
79136;BME280;68533;51.090;17.216;2023-08-17T09:07:22;100543.09;;;25.76;57.14
79136;BME280;68533;51.090;17.216;2023-08-17T09:09:48;100545.47;;;26.11;58.84
79136;BME280;68533;51.090;17.216;2023-08-17T09:12:14;100544.25;;;26.90;59.86
79136;BME280;68533;51.090;17.216;2023-08-17T09:14:53;100544.78;;;27.82;53.78
79136;BME280;68533;51.090;17.216;2023-08-17T09:17:26;100544.53;;;28.26;55.54
79136;BME280;68533;51.090;17.216;2023-08-17T09:19:53;100538.09;;;28.54;51.86
79136;BME280;68533;51.090;17.216;2023-08-17T09:22:40;100544.09;;;29.52;53.66
79136;BME280;68533;51.090;17.216;2023-08-17T09:25:07;100532.50;;;30.12;47.33
79136;BME280;68533;51.090;17.216;2023-08-17T09:27:36;100540.94;;;28.72;49.71
79136;BME280;68533;51.090;17.216;2023-08-17T09:30:09;100531.53;;;29.60;47.51
79136;BME280;68533;51.090;17.216;2023-08-17T09:32:35;100533.09;;;30.52;49.24
79136;BME280;68533;51.090;17.216;2023-08-17T09:35:05;100534.31;;;30.95;45.98
79136;BME280;68533;51.090;17.216;2023-08-17T09:37:33;100537.97;;;31.37;46.22
79136;BME280;68533;51.090;17.216;2023-08-17T09:39:59;100540.22;;;32.17;44.05
79136;BME280;68533;51.090;17.216;2023-08-17T09:42:29;100532.97;;;31.48;44.45
79136;BME280;68533;51.090;17.216;2023-08-17T09:44:58;100527.72;;;31.05;47.84
79136;BME280;68533;51.090;17.216;2023-08-17T09:47:28;100527.25;;;31.85;42.33
79136;BME280;68533;51.090;17.216;2023-08-17T09:49:54;100523.81;;;31.67;46.78
79136;BME280;68533;51.090;17.216;2023-08-17T09:52:21;100523.31;;;32.60;43.91
79136;BME280;68533;51.090;17.216;2023-08-17T09:54:47;100525.59;;;32.18;41.80
79136;BME280;68533;51.090;17.216;2023-08-17T09:57:15;100527.50;;;31.94;41.89
79136;BME280;68533;51.090;17.216;2023-08-17T09:59:44;100521.41;;;32.26;43.12
79136;BME280;68533;51.090;17.216;2023-08-17T10:02:20;100521.25;;;32.07;43.80
79136;BME280;68533;51.090;17.216;2023-08-17T10:04:57;100517.75;;;32.99;42.43
79136;BME280;68533;51.090;17.216;2023-08-17T10:07:29;100519.44;;;31.59;44.67
79136;BME280;68533;51.090;17.216;2023-08-17T10:10:06;100507.34;;;31.51;44.43
79136;BME280;68533;51.090;17.216;2023-08-17T10:12:37;100507.31;;;29.30;48.46
79136;BME280;68533;51.090;17.216;2023-08-17T10:15:15;100505.75;;;30.13;48.28
79136;BME280;68533;51.090;17.216;2023-08-17T10:17:53;100510.53;;;29.43;50.10
79136;BME280;68533;51.090;17.216;2023-08-17T10:20:22;100499.72;;;31.11;47.29
79136;BME280;68533;51.090;17.216;2023-08-17T10:22:51;100503.94;;;31.30;45.86
79136;BME280;68533;51.090;17.216;2023-08-17T10:25:20;100500.03;;;29.29;47.31
79136;BME280;68533;51.090;17.216;2023-08-17T10:27:49;100496.25;;;30.41;45.35
79136;BME280;68533;51.090;17.216;2023-08-17T10:30:17;100499.63;;;31.86;46.71
79136;BME280;68533;51.090;17.216;2023-08-17T10:32:43;100500.03;;;30.20;45.52
79136;BME280;68533;51.090;17.216;2023-08-17T10:35:13;100493.78;;;31.32;43.87
79136;BME280;68533;51.090;17.216;2023-08-17T10:37:40;100495.75;;;32.53;40.61
79136;BME280;68533;51.090;17.216;2023-08-17T10:40:06;100498.00;;;32.15;41.91
79136;BME280;68533;51.090;17.216;2023-08-17T10:42:36;100490.16;;;32.73;42.85
79136;BME280;68533;51.090;17.216;2023-08-17T10:45:31;100484.28;;;33.86;40.85
79136;BME280;68533;51.090;17.216;2023-08-17T10:50:37;100483.28;;;33.76;40.50
79136;BME280;68533;51.090;17.216;2023-08-17T10:53:09;100479.06;;;34.01;41.18
79136;BME280;68533;51.090;17.216;2023-08-17T10:55:41;100475.44;;;34.33;43.59
79136;BME280;68533;51.090;17.216;2023-08-17T10:58:08;100472.97;;;34.67;39.00
79136;BME280;68533;51.090;17.216;2023-08-17T11:00:35;100481.63;;;34.31;39.02
79136;BME280;68533;51.090;17.216;2023-08-17T11:03:07;100477.97;;;34.31;38.70
79136;BME280;68533;51.090;17.216;2023-08-17T11:05:55;100472.44;;;34.23;40.98
79136;BME280;68533;51.090;17.216;2023-08-17T11:08:51;100470.56;;;32.98;39.31
79136;BME280;68533;51.090;17.216;2023-08-17T11:11:20;100467.91;;;31.23;44.15
79136;BME280;68533;51.090;17.216;2023-08-17T11:13:46;100462.72;;;30.29;45.97
79136;BME280;68533;51.090;17.216;2023-08-17T11:16:14;100462.72;;;31.14;45.19
79136;BME280;68533;51.090;17.216;2023-08-17T11:18:41;100469.34;;;32.29;46.81
79136;BME280;68533;51.090;17.216;2023-08-17T11:21:10;100459.63;;;33.17;40.93
79136;BME280;68533;51.090;17.216;2023-08-17T11:23:37;100464.16;;;32.71;41.64
79136;BME280;68533;51.090;17.216;2023-08-17T11:26:03;100465.41;;;33.92;40.38
79136;BME280;68533;51.090;17.216;2023-08-17T11:28:31;100466.03;;;33.64;38.00
79136;BME280;68533;51.090;17.216;2023-08-17T11:31:03;100460.06;;;33.15;40.86
79136;BME280;68533;51.090;17.216;2023-08-17T11:33:33;100464.50;;;33.95;39.88
79136;BME280;68533;51.090;17.216;2023-08-17T11:36:01;100457.81;;;33.85;38.82
79136;BME280;68533;51.090;17.216;2023-08-17T11:38:35;100456.38;;;34.30;36.73
79136;BME280;68533;51.090;17.216;2023-08-17T11:41:02;100457.97;;;34.47;36.73
79136;BME280;68533;51.090;17.216;2023-08-17T11:43:33;100460.81;;;34.63;39.11
79136;BME280;68533;51.090;17.216;2023-08-17T11:46:00;100470.66;;;34.46;37.40
79136;BME280;68533;51.090;17.216;2023-08-17T11:48:27;100462.59;;;35.34;36.33
79136;BME280;68533;51.090;17.216;2023-08-17T11:50:54;100471.53;;;34.59;39.43
79136;BME280;68533;51.090;17.216;2023-08-17T11:53:33;100469.41;;;34.79;40.29
79136;BME280;68533;51.090;17.216;2023-08-17T11:55:59;100471.59;;;34.72;39.80
79136;BME280;68533;51.090;17.216;2023-08-17T11:58:47;100463.63;;;33.98;38.17
79136;BME280;68533;51.090;17.216;2023-08-17T12:01:13;100467.78;;;33.38;41.73
79136;BME280;68533;51.090;17.216;2023-08-17T12:03:42;100477.22;;;32.68;40.96
79136;BME280;68533;51.090;17.216;2023-08-17T12:06:09;100470.75;;;32.64;43.21
79136;BME280;68533;51.090;17.216;2023-08-17T12:08:35;100463.63;;;33.23;39.64
79136;BME280;68533;51.090;17.216;2023-08-17T12:11:02;100462.34;;;33.04;41.89
79136;BME280;68533;51.090;17.216;2023-08-17T12:13:33;100463.00;;;33.51;39.06
79136;BME280;68533;51.090;17.216;2023-08-17T12:16:00;100452.75;;;33.93;39.77
79136;BME280;68533;51.090;17.216;2023-08-17T12:18:30;100461.88;;;33.48;43.73
79136;BME280;68533;51.090;17.216;2023-08-17T12:20:57;100451.47;;;33.78;40.72
79136;BME280;68533;51.090;17.216;2023-08-17T12:23:24;100456.38;;;34.30;40.42
79136;BME280;68533;51.090;17.216;2023-08-17T12:25:53;100446.13;;;33.96;38.22
79136;BME280;68533;51.090;17.216;2023-08-17T12:28:25;100444.06;;;34.49;40.35
79136;BME280;68533;51.090;17.216;2023-08-17T12:31:01;100439.38;;;33.34;38.81
79136;BME280;68533;51.090;17.216;2023-08-17T12:33:29;100431.38;;;32.13;39.87
79136;BME280;68533;51.090;17.216;2023-08-17T12:35:57;100425.47;;;31.73;41.87
79136;BME280;68533;51.090;17.216;2023-08-17T12:38:28;100418.81;;;31.22;41.99
79136;BME280;68533;51.090;17.216;2023-08-17T12:40:54;100420.34;;;31.91;41.07
79136;BME280;68533;51.090;17.216;2023-08-17T12:43:20;100415.63;;;32.78;42.54
79136;BME280;68533;51.090;17.216;2023-08-17T12:45:49;100415.03;;;33.49;37.55
79136;BME280;68533;51.090;17.216;2023-08-17T12:48:16;100405.34;;;32.84;41.79
79136;BME280;68533;51.090;17.216;2023-08-17T12:50:41;100407.78;;;33.81;42.07
79136;BME280;68533;51.090;17.216;2023-08-17T12:53:11;100395.25;;;33.78;39.08
79136;BME280;68533;51.090;17.216;2023-08-17T12:55:37;100387.88;;;34.46;40.38
79136;BME280;68533;51.090;17.216;2023-08-17T12:58:03;100382.81;;;34.66;36.78